Time,TemperatureF,DewpointF,PressureIn,WindDirection,WindDirectionDegrees,WindSpeedMPH,WindSpeedGustMPH,Humidity,HourlyPrecipIn,Conditions,Clouds,dailyrainin,SoftwareType,DateUTC
2013-03-19 00:12:00,14.7,14.2,29.48,WSW,247,5.8,-999.0,98,-99.99,,,0.00,Acu-Link.com,2013-03-19 05:12:00,
2013-03-19 00:27:00,14.9,14.4,29.48,WSW,247,5.3,-999.0,98,-99.99,,,0.00,Acu-Link.com,2013-03-19 05:27:00,
2013-03-19 00:42:00,14.9,14.4,29.48,SW,225,8.3,-999.0,98,-99.99,,,0.00,Acu-Link.com,2013-03-19 05:42:00,
2013-03-19 00:57:00,14.9,14.4,29.48,West,270,5.8,-999.0,98,-99.99,,,0.00,Acu-Link.com,2013-03-19 05:57:00,
2013-03-19 01:12:00,14.7,14.2,29.48,SW,225,6.8,-999.0,98,-99.99,,,0.00,Acu-Link.com,2013-03-19 06:12:00,
2013-03-19 01:28:00,14.5,14.0,29.48,West,270,6.8,-999.0,98,-99.99,,,0.00,Acu-Link.com,2013-03-19 06:28:00,
2013-03-19 01:43:00,14.2,13.7,29.48,SW,225,7.8,-999.0,98,-99.99,,,0.00,Acu-Link.com,2013-03-19 06:43:00,
2013-03-19 01:58:00,13.8,13.3,29.49,West,270,5.3,-999.0,98,-99.99,,,0.00,Acu-Link.com,2013-03-19 06:58:00,
2013-03-19 02:13:00,13.1,12.6,29.50,WSW,247,5.8,-999.0,98,-99.99,,,0.00,Acu-Link.com,2013-03-19 07:13:00,
2013-03-19 02:28:00,12.4,11.9,29.51,South,180,4.2,-999.0,98,-99.99,,,0.00,Acu-Link.com,2013-03-19 07:28:00,
2013-03-19 02:43:00,12.0,11.5,29.50,SSW,202,9.4,-999.0,98,-99.99,,,0.00,Acu-Link.com,2013-03-19 07:43:00,
2013-03-19 02:58:00,11.7,11.2,29.51,West,270,4.2,-999.0,98,-99.99,,,0.00,Acu-Link.com,2013-03-19 07:58:00,
2013-03-19 03:14:00,11.5,11.0,29.52,WSW,247,11.4,-999.0,98,-99.99,,,0.00,Acu-Link.com,2013-03-19 08:14:00,
2013-03-19 03:29:00,11.1,10.6,29.52,WSW,247,6.8,-999.0,98,-99.99,,,0.00,Acu-Link.com,2013-03-19 08:29:00,
2013-03-19 03:44:00,10.8,10.3,29.53,SW,225,8.9,-999.0,98,-99.99,,,0.00,Acu-Link.com,2013-03-19 08:44:00,
2013-03-19 03:59:00,10.4,9.9,29.53,WSW,247,5.8,-999.0,98,-99.99,,,0.00,Acu-Link.com,2013-03-19 08:59:00,
2013-03-19 04:14:00,10.4,9.9,29.54,WSW,247,6.3,-999.0,98,-99.99,,,0.00,Acu-Link.com,2013-03-19 09:14:00,
2013-03-19 04:30:00,10.2,9.7,29.54,West,270,4.2,-999.0,98,-99.99,,,0.00,Acu-Link.com,2013-03-19 09:30:00,
2013-03-19 04:45:00,10.0,9.6,29.55,WSW,247,4.7,-999.0,98,-99.99,,,0.00,Acu-Link.com,2013-03-19 09:45:00,
2013-03-19 05:01:00,9.9,9.5,29.55,WSW,247,8.3,-999.0,98,-99.99,,,0.00,Acu-Link.com,2013-03-19 10:01:00,
2013-03-19 05:31:00,9.5,9.1,29.56,West,270,5.8,-999.0,98,-99.99,,,0.00,Acu-Link.com,2013-03-19 10:31:00,
2013-03-19 05:46:00,9.1,8.7,29.58,WSW,247,4.7,-999.0,98,-99.99,,,0.00,Acu-Link.com,2013-03-19 10:46:00,
2013-03-19 06:17:00,8.8,8.4,29.59,WSW,247,7.3,-999.0,98,-99.99,,,0.00,Acu-Link.com,2013-03-19 11:17:00,
2013-03-19 06:32:00,8.6,8.2,29.61,SW,225,8.3,-999.0,98,-99.99,,,0.00,Acu-Link.com,2013-03-19 11:32:00,
2013-03-19 06:48:00,8.6,8.2,29.61,WSW,247,4.7,-999.0,98,-99.99,,,0.00,Acu-Link.com,2013-03-19 11:48:00,
2013-03-19 07:03:00,8.4,8.0,29.61,West,270,11.9,-999.0,98,-99.99,,,0.00,Acu-Link.com,2013-03-19 12:03:00,
2013-03-19 07:18:00,8.2,7.8,29.61,WNW,292,4.2,-999.0,98,-99.99,,,0.00,Acu-Link.com,2013-03-19 12:18:00,
2013-03-19 07:33:00,8.1,7.7,29.62,SSW,202,7.8,-999.0,98,-99.99,,,0.00,Acu-Link.com,2013-03-19 12:33:00,
2013-03-19 07:49:00,8.4,8.0,29.63,WSW,247,7.3,-999.0,98,-99.99,,,0.00,Acu-Link.com,2013-03-19 12:49:00,
2013-03-19 08:04:00,8.8,8.4,29.63,West,270,3.7,-999.0,98,-99.99,,,0.00,Acu-Link.com,2013-03-19 13:04:00,
2013-03-19 08:19:00,9.1,8.4,29.63,SW,225,8.9,-999.0,97,-99.99,,,0.00,Acu-Link.com,2013-03-19 13:19:00,
2013-03-19 08:34:00,10.0,9.1,29.64,WSW,247,5.8,-999.0,96,-99.99,,,0.00,Acu-Link.com,2013-03-19 13:34:00,
2013-03-19 08:49:00,10.0,9.1,29.64,WSW,247,3.7,-999.0,96,-99.99,,,0.00,Acu-Link.com,2013-03-19 13:49:00,
2013-03-19 09:04:00,9.9,8.5,29.64,West,270,4.2,-999.0,94,-99.99,,,0.00,Acu-Link.com,2013-03-19 14:04:00,
2013-03-19 09:19:00,10.6,8.5,29.65,WSW,247,4.7,-999.0,91,-99.99,,,0.00,Acu-Link.com,2013-03-19 14:19:00,
2013-03-19 09:34:00,11.5,8.4,29.66,SSW,202,4.2,-999.0,87,-99.99,,,0.00,Acu-Link.com,2013-03-19 14:34:00,
2013-03-19 09:49:00,13.1,10.2,29.65,West,270,6.3,-999.0,88,-99.99,,,0.00,Acu-Link.com,2013-03-19 14:49:00,
2013-03-19 10:05:00,13.8,10.4,29.67,NNW,337,6.8,-999.0,86,-99.99,,,0.00,Acu-Link.com,2013-03-19 15:05:00,
2013-03-19 10:20:00,13.8,10.9,29.67,West,270,4.7,-999.0,88,-99.99,,,0.00,Acu-Link.com,2013-03-19 15:20:00,
2013-03-19 10:35:00,14.5,10.3,29.68,SW,225,5.3,-999.0,83,-99.99,,,0.00,Acu-Link.com,2013-03-19 15:35:00,
2013-03-19 10:50:00,16.0,10.7,29.68,WSW,247,8.3,-999.0,79,-99.99,,,0.00,Acu-Link.com,2013-03-19 15:50:00,
2013-03-19 11:06:00,16.7,10.5,29.69,WSW,247,8.3,-999.0,76,-99.99,,,0.00,Acu-Link.com,2013-03-19 16:06:00,
2013-03-19 11:36:00,18.9,11.7,29.70,WSW,247,6.3,-999.0,73,-99.99,,,0.00,Acu-Link.com,2013-03-19 16:36:00,
2013-03-19 11:51:00,18.7,10.9,29.71,SSW,202,4.7,-999.0,71,-99.99,,,0.00,Acu-Link.com,2013-03-19 16:51:00,
2013-03-19 12:07:00,20.8,11.6,29.70,WSW,247,4.2,-999.0,67,-99.99,,,0.00,Acu-Link.com,2013-03-19 17:07:00,
2013-03-19 12:22:00,21.6,11.0,29.70,SW,225,8.3,-999.0,63,-99.99,,,0.00,Acu-Link.com,2013-03-19 17:22:00,
2013-03-19 12:37:00,23.4,12.0,29.70,West,270,3.7,-999.0,61,-99.99,,,0.00,Acu-Link.com,2013-03-19 17:37:00,
2013-03-19 12:52:00,25.2,12.1,29.70,West,270,6.8,-999.0,57,-99.99,,,0.00,Acu-Link.com,2013-03-19 17:52:00,
2013-03-19 13:07:00,27.0,12.6,29.71,WNW,292,7.8,-999.0,54,-99.99,,,0.00,Acu-Link.com,2013-03-19 18:07:00,
2013-03-19 13:22:00,24.6,10.4,29.72,West,270,8.9,-999.0,54,-99.99,,,0.00,Acu-Link.com,2013-03-19 18:22:00,
2013-03-19 13:38:00,25.9,10.7,29.71,WSW,247,8.9,-999.0,52,-99.99,,,0.00,Acu-Link.com,2013-03-19 18:38:00,
2013-03-19 13:53:00,25.0,10.3,29.72,SW,225,5.8,-999.0,53,-99.99,,,0.00,Acu-Link.com,2013-03-19 18:53:00,
2013-03-19 14:08:00,25.9,10.7,29.72,West,270,6.3,-999.0,52,-99.99,,,0.00,Acu-Link.com,2013-03-19 19:08:00,
2013-03-19 14:23:00,26.2,9.7,29.72,NW,315,5.8,-999.0,49,-99.99,,,0.00,Acu-Link.com,2013-03-19 19:23:00,
2013-03-19 14:38:00,26.2,10.1,29.73,WNW,292,4.7,-999.0,50,-99.99,,,0.00,Acu-Link.com,2013-03-19 19:38:00,
2013-03-19 14:53:00,26.4,9.9,29.73,SSW,202,12.5,-999.0,49,-99.99,,,0.00,Acu-Link.com,2013-03-19 19:53:00,
2013-03-19 15:08:00,25.7,8.8,29.73,West,270,7.3,-999.0,48,-99.99,,,0.00,Acu-Link.com,2013-03-19 20:08:00,
2013-03-19 15:24:00,27.0,10.0,29.74,WNW,292,7.3,-999.0,48,-99.99,,,0.00,Acu-Link.com,2013-03-19 20:24:00,
2013-03-19 15:39:00,26.6,9.1,29.74,WSW,247,4.7,-999.0,47,-99.99,,,0.00,Acu-Link.com,2013-03-19 20:39:00,
2013-03-19 15:54:00,26.6,8.6,29.75,WSW,247,16.1,-999.0,46,-99.99,,,0.00,Acu-Link.com,2013-03-19 20:54:00,
2013-03-19 16:10:00,26.2,9.7,29.74,West,270,5.8,-999.0,49,-99.99,,,0.00,Acu-Link.com,2013-03-19 21:10:00,
2013-03-19 16:25:00,25.5,8.6,29.74,WSW,247,9.4,-999.0,48,-99.99,,,0.00,Acu-Link.com,2013-03-19 21:25:00,
2013-03-19 16:40:00,25.9,8.9,29.76,SW,225,9.4,-999.0,48,-99.99,,,0.00,Acu-Link.com,2013-03-19 21:40:00,
2013-03-19 16:55:00,25.5,8.6,29.77,WSW,247,10.4,-999.0,48,-99.99,,,0.00,Acu-Link.com,2013-03-19 21:55:00,
2013-03-19 17:10:00,26.1,8.7,29.76,WSW,247,11.4,-999.0,47,-99.99,,,0.00,Acu-Link.com,2013-03-19 22:10:00,
2013-03-19 17:25:00,26.2,8.3,29.77,SW,225,6.8,-999.0,46,-99.99,,,0.00,Acu-Link.com,2013-03-19 22:25:00,
2013-03-19 17:41:00,25.3,7.5,29.77,WSW,247,8.3,-999.0,46,-99.99,,,0.00,Acu-Link.com,2013-03-19 22:41:00,
2013-03-19 17:56:00,25.5,8.1,29.80,WSW,247,6.8,-999.0,47,-99.99,,,0.00,Acu-Link.com,2013-03-19 22:56:00,
2013-03-19 18:11:00,26.4,8.0,29.79,SW,225,4.7,-999.0,45,-99.99,,,0.00,Acu-Link.com,2013-03-19 23:11:00,
2013-03-19 18:27:00,26.4,7.5,29.80,West,270,3.2,-999.0,44,-99.99,,,0.00,Acu-Link.com,2013-03-19 23:27:00,
2013-03-19 18:42:00,24.8,6.5,29.81,SW,225,5.3,-999.0,45,-99.99,,,0.00,Acu-Link.com,2013-03-19 23:42:00,
2013-03-19 18:57:00,22.5,5.8,29.82,West,270,4.2,-999.0,48,-99.99,,,0.00,Acu-Link.com,2013-03-19 23:57:00,
2013-03-19 19:12:00,21.4,4.8,29.83,NW,315,6.8,-999.0,48,-99.99,,,0.00,Acu-Link.com,2013-03-20 00:12:00,
2013-03-19 19:27:00,19.9,3.9,29.83,WSW,247,6.3,-999.0,49,-99.99,,,0.00,Acu-Link.com,2013-03-20 00:27:00,
2013-03-19 19:43:00,19.0,3.5,29.84,WNW,292,4.2,-999.0,50,-99.99,,,0.00,Acu-Link.com,2013-03-20 00:43:00,
2013-03-19 19:58:00,18.7,3.2,29.84,WNW,292,2.7,-999.0,50,-99.99,,,0.00,Acu-Link.com,2013-03-20 00:58:00,
2013-03-19 20:13:00,18.0,3.0,29.85,West,270,2.7,-999.0,51,-99.99,,,0.00,Acu-Link.com,2013-03-20 01:13:00,
2013-03-19 20:28:00,17.2,2.6,29.85,West,270,2.7,-999.0,52,-99.99,,,0.00,Acu-Link.com,2013-03-20 01:28:00,
2013-03-19 20:43:00,17.1,2.5,29.87,North,0,5.8,-999.0,52,-99.99,,,0.00,Acu-Link.com,2013-03-20 01:43:00,
2013-03-19 20:59:00,16.7,2.6,29.87,SW,225,4.7,-999.0,53,-99.99,,,0.00,Acu-Link.com,2013-03-20 01:59:00,
2013-03-19 21:14:00,16.0,1.9,29.87,WNW,292,6.3,-999.0,53,-99.99,,,0.00,Acu-Link.com,2013-03-20 02:14:00,
2013-03-19 21:30:00,15.6,2.0,29.88,SW,225,6.3,-999.0,54,-99.99,,,0.00,Acu-Link.com,2013-03-20 02:30:00,
2013-03-19 21:45:00,16.0,2.7,29.88,WSW,247,7.8,-999.0,55,-99.99,,,0.00,Acu-Link.com,2013-03-20 02:45:00,
2013-03-19 22:00:00,14.9,1.7,29.88,West,270,3.7,-999.0,55,-99.99,,,0.00,Acu-Link.com,2013-03-20 03:00:00,
2013-03-19 22:15:00,14.7,1.9,29.89,West,270,3.2,-999.0,56,-99.99,,,0.00,Acu-Link.com,2013-03-20 03:15:00,
2013-03-19 22:30:00,14.0,2.0,29.89,South,180,5.3,-999.0,58,-99.99,,,0.00,Acu-Link.com,2013-03-20 03:30:00,
2013-03-19 22:45:00,13.5,1.5,29.89,West,270,5.3,-999.0,58,-99.99,,,0.00,Acu-Link.com,2013-03-20 03:45:00,
2013-03-19 23:01:00,12.9,0.9,29.90,West,270,3.7,-999.0,58,-99.99,,,0.00,Acu-Link.com,2013-03-20 04:01:00,
2013-03-19 23:16:00,12.0,0.8,29.89,WSW,247,4.2,-999.0,60,-99.99,,,0.00,Acu-Link.com,2013-03-20 04:16:00,
2013-03-19 23:46:00,10.9,0.5,29.90,WNW,292,7.3,-999.0,62,-99.99,,,0.00,Acu-Link.com,2013-03-20 04:46:00,